San Diego, California
Traffic Map
Current Weather Conditions
San Diego, California
Broken Clouds
Broken Clouds
18°
Feels Like: 18°
Wind Chill: 18° Ceiling: 2900
Heat Index: 18° Visibility: 10mi
Dew Point: 11° Wind: 13mph
Humidity: 64% Direction: 240° (WSW)
Pressure: 30.03in Gusts: 20mph
Raw Report DataKSAN 251923Z 24011G17KT 10SM SCT023 BKN029 BKN044 BKN250 18/11 A3003 RMK AO2
Traffic Incident Summary
Active as of:
Severity:
Category:
InformationThere was an issue retrieving the traffic information for this location. Please try a different location or try again shortly.
Advertisements
Track Severe Weather on mobile